Time,TemperatureF,DewpointF,PressureIn,WindDirection,WindDirectionDegrees,WindSpeedMPH,WindSpeedGustMPH,Humidity,HourlyPrecipIn,Conditions,Clouds,dailyrainin,SoftwareType,DateUTC
2013-09-13 00:00:00,58.8,47.1,29.85,WNW,296,0.0,4.0,65,0.00,,,0.00,Wunderground v.1.15,2013-09-13 06:00:00,
2013-09-13 00:05:00,58.5,47.6,29.85,WNW,296,0.0,4.0,67,0.00,,,0.00,Wunderground v.1.15,2013-09-13 06:05:00,
2013-09-13 00:10:00,58.6,47.3,29.85,WNW,296,0.0,4.0,66,0.00,,,0.00,Wunderground v.1.15,2013-09-13 06:10:00,
2013-09-13 00:15:00,58.9,47.2,29.85,WNW,296,0.0,4.0,65,0.00,,,0.00,Wunderground v.1.15,2013-09-13 06:15:00,
2013-09-13 00:20:00,58.9,47.2,29.85,WNW,296,0.0,4.0,65,0.00,,,0.00,Wunderground v.1.15,2013-09-13 06:20:00,
2013-09-13 00:25:00,58.9,47.2,29.85,WNW,296,0.0,4.0,65,0.00,,,0.00,Wunderground v.1.15,2013-09-13 06:25:00,
2013-09-13 00:30:00,58.8,47.1,29.85,WNW,296,0.0,4.0,65,0.00,,,0.00,Wunderground v.1.15,2013-09-13 06:30:00,
2013-09-13 00:40:00,59.9,47.7,29.84,WNW,296,0.0,4.0,64,0.00,,,0.00,Wunderground v.1.15,2013-09-13 06:40:00,
2013-09-13 00:45:00,60.0,47.4,29.84,WNW,296,0.0,4.0,63,0.00,,,0.00,Wunderground v.1.15,2013-09-13 06:45:00,
2013-09-13 00:50:00,59.7,47.5,29.84,WNW,296,0.0,4.0,64,0.00,,,0.00,Wunderground v.1.15,2013-09-13 06:50:00,
2013-09-13 00:55:00,59.1,47.7,29.84,WNW,296,0.0,4.0,66,0.00,,,0.00,Wunderground v.1.15,2013-09-13 06:55:00,
2013-09-13 01:00:00,59.0,47.7,29.84,WNW,296,0.0,4.0,66,0.00,,,0.00,Wunderground v.1.15,2013-09-13 07:00:00,
2013-09-13 01:05:00,58.3,47.4,29.84,WNW,296,0.0,4.0,67,0.00,,,0.00,Wunderground v.1.15,2013-09-13 07:05:00,
2013-09-13 01:15:00,57.6,46.7,29.84,WNW,296,0.0,4.0,67,0.00,,,0.00,Wunderground v.1.15,2013-09-13 07:15:00,
2013-09-13 01:25:00,58.6,46.9,29.84,WNW,296,0.0,4.0,65,0.00,,,0.00,Wunderground v.1.15,2013-09-13 07:25:00,
2013-09-13 01:30:00,59.8,47.2,29.83,WNW,296,0.0,4.0,63,0.00,,,0.00,Wunderground v.1.15,2013-09-13 07:30:00,
2013-09-13 01:35:00,59.5,47.7,29.83,WNW,296,0.0,4.0,65,0.00,,,0.00,Wunderground v.1.15,2013-09-13 07:35:00,
2013-09-13 01:40:00,58.3,47.0,29.83,WNW,296,0.0,4.0,66,0.00,,,0.00,Wunderground v.1.15,2013-09-13 07:40:00,
2013-09-13 01:45:00,57.0,46.5,29.83,WNW,296,0.0,4.0,68,0.00,,,0.00,Wunderground v.1.15,2013-09-13 07:45:00,
2013-09-13 01:50:00,56.8,46.7,29.83,WNW,296,0.0,4.0,69,0.00,,,0.00,Wunderground v.1.15,2013-09-13 07:50:00,
2013-09-13 02:00:00,56.7,47.0,29.84,WNW,296,0.0,4.0,70,0.00,,,0.00,Wunderground v.1.15,2013-09-13 08:00:00,
2013-09-13 02:05:00,57.1,47.0,29.84,WNW,296,0.0,4.0,69,0.00,,,0.00,Wunderground v.1.15,2013-09-13 08:05:00,
2013-09-13 02:10:00,56.7,47.4,29.84,WNW,296,0.0,4.0,71,0.00,,,0.00,Wunderground v.1.15,2013-09-13 08:10:00,
2013-09-13 02:15:00,55.4,46.2,29.84,WNW,296,0.0,4.0,71,0.00,,,0.00,Wunderground v.1.15,2013-09-13 08:15:00,
2013-09-13 02:20:00,54.6,46.1,29.84,WNW,296,0.0,4.0,73,0.00,,,0.00,Wunderground v.1.15,2013-09-13 08:20:00,
2013-09-13 02:25:00,54.2,45.7,29.84,WNW,296,0.0,4.0,73,0.00,,,0.00,Wunderground v.1.15,2013-09-13 08:25:00,
2013-09-13 02:30:00,54.3,45.8,29.84,WNW,296,0.0,4.0,73,0.00,,,0.00,Wunderground v.1.15,2013-09-13 08:30:00,
2013-09-13 02:35:00,54.8,46.7,29.84,WNW,296,0.0,4.0,74,0.00,,,0.00,Wunderground v.1.15,2013-09-13 08:35:00,
2013-09-13 02:40:00,55.1,46.6,29.84,WNW,296,0.0,4.0,73,0.00,,,0.00,Wunderground v.1.15,2013-09-13 08:40:00,
2013-09-13 02:45:00,54.9,46.4,29.84,WNW,296,0.0,4.0,73,0.00,,,0.00,Wunderground v.1.15,2013-09-13 08:45:00,
2013-09-13 02:50:00,53.3,45.6,29.84,WNW,296,0.0,4.0,75,0.00,,,0.00,Wunderground v.1.15,2013-09-13 08:50:00,
2013-09-13 02:55:00,53.4,46.0,29.84,WNW,296,0.0,4.0,76,0.00,,,0.00,Wunderground v.1.15,2013-09-13 08:55:00,
2013-09-13 03:00:00,54.0,46.3,29.85,WNW,296,0.0,4.0,75,0.00,,,0.00,Wunderground v.1.15,2013-09-13 09:00:00,
2013-09-13 03:05:00,54.9,47.1,29.85,WNW,296,0.0,4.0,75,0.00,,,0.00,Wunderground v.1.15,2013-09-13 09:05:00,
2013-09-13 03:15:00,54.7,46.9,29.84,WNW,296,0.0,4.0,75,0.00,,,0.00,Wunderground v.1.15,2013-09-13 09:15:00,
2013-09-13 03:20:00,55.0,47.2,29.84,WNW,296,0.0,4.0,75,0.00,,,0.00,Wunderground v.1.15,2013-09-13 09:20:00,
2013-09-13 03:25:00,54.6,46.5,29.85,WNW,296,0.0,4.0,74,0.00,,,0.00,Wunderground v.1.15,2013-09-13 09:25:00,
2013-09-13 03:35:00,53.6,46.2,29.85,WNW,296,0.0,4.0,76,0.00,,,0.00,Wunderground v.1.15,2013-09-13 09:35:00,
2013-09-13 03:40:00,54.5,47.1,29.85,WNW,296,0.0,4.0,76,0.00,,,0.00,Wunderground v.1.15,2013-09-13 09:40:00,
2013-09-13 03:50:00,54.4,46.6,29.85,WNW,296,0.0,4.0,75,0.00,,,0.00,Wunderground v.1.15,2013-09-13 09:50:00,
2013-09-13 03:55:00,54.5,46.4,29.85,WNW,296,0.0,4.0,74,0.00,,,0.00,Wunderground v.1.15,2013-09-13 09:55:00,
2013-09-13 04:00:00,54.2,46.4,29.85,WNW,296,0.0,4.0,75,0.00,,,0.00,Wunderground v.1.15,2013-09-13 10:00:00,
2013-09-13 04:05:00,54.1,46.3,29.85,WNW,296,0.0,4.0,75,0.00,,,0.00,Wunderground v.1.15,2013-09-13 10:05:00,
2013-09-13 04:10:00,54.2,46.8,29.84,WNW,296,0.0,4.0,76,0.00,,,0.00,Wunderground v.1.15,2013-09-13 10:10:00,
2013-09-13 04:15:00,54.9,47.1,29.84,WNW,296,0.0,4.0,75,0.00,,,0.00,Wunderground v.1.15,2013-09-13 10:15:00,
2013-09-13 04:20:00,55.1,47.0,29.85,WNW,296,0.0,4.0,74,0.00,,,0.00,Wunderground v.1.15,2013-09-13 10:20:00,
2013-09-13 04:25:00,55.0,46.9,29.85,WNW,296,0.0,4.0,74,0.00,,,0.00,Wunderground v.1.15,2013-09-13 10:25:00,
2013-09-13 04:30:00,54.3,46.2,29.85,WNW,296,0.0,4.0,74,0.00,,,0.00,Wunderground v.1.15,2013-09-13 10:30:00,
2013-09-13 04:35:00,54.0,46.3,29.85,WNW,296,0.0,4.0,75,0.00,,,0.00,Wunderground v.1.15,2013-09-13 10:35:00,
2013-09-13 04:40:00,53.5,45.8,29.85,WNW,296,0.0,4.0,75,0.00,,,0.00,Wunderground v.1.15,2013-09-13 10:40:00,
2013-09-13 04:45:00,52.9,45.5,29.84,WNW,296,0.0,4.0,76,0.00,,,0.00,Wunderground v.1.15,2013-09-13 10:45:00,
2013-09-13 04:55:00,54.5,47.1,29.84,WNW,296,0.0,4.0,76,0.00,,,0.00,Wunderground v.1.15,2013-09-13 10:55:00,
2013-09-13 05:00:00,55.2,46.7,29.84,WNW,296,0.0,4.0,73,0.00,,,0.00,Wunderground v.1.15,2013-09-13 11:00:00,
2013-09-13 05:05:00,55.1,46.6,29.84,WNW,296,0.0,4.0,73,0.00,,,0.00,Wunderground v.1.15,2013-09-13 11:05:00,
2013-09-13 05:10:00,53.9,45.8,29.83,WNW,296,0.0,4.0,74,0.00,,,0.00,Wunderground v.1.15,2013-09-13 11:10:00,
2013-09-13 05:15:00,53.4,45.7,29.84,WNW,296,0.0,4.0,75,0.00,,,0.00,Wunderground v.1.15,2013-09-13 11:15:00,
2013-09-13 05:20:00,53.2,45.8,29.84,WNW,296,0.0,4.0,76,0.00,,,0.00,Wunderground v.1.15,2013-09-13 11:20:00,
2013-09-13 05:25:00,53.6,46.2,29.84,WNW,296,0.0,4.0,76,0.00,,,0.00,Wunderground v.1.15,2013-09-13 11:25:00,
2013-09-13 05:30:00,54.2,46.4,29.84,WNW,296,0.0,4.0,75,0.00,,,0.00,Wunderground v.1.15,2013-09-13 11:30:00,
2013-09-13 05:35:00,53.8,46.1,29.84,WNW,296,0.0,4.0,75,0.00,,,0.00,Wunderground v.1.15,2013-09-13 11:35:00,
2013-09-13 05:40:00,52.8,45.8,29.84,WNW,296,0.0,4.0,77,0.00,,,0.00,Wunderground v.1.15,2013-09-13 11:40:00,
2013-09-13 05:45:00,53.2,46.2,29.84,WNW,296,0.0,4.0,77,0.00,,,0.00,Wunderground v.1.15,2013-09-13 11:45:00,
2013-09-13 05:50:00,53.0,46.0,29.84,WNW,296,0.0,4.0,77,0.00,,,0.00,Wunderground v.1.15,2013-09-13 11:50:00,
2013-09-13 05:55:00,52.7,45.7,29.84,WNW,296,0.0,4.0,77,0.00,,,0.00,Wunderground v.1.15,2013-09-13 11:55:00,
2013-09-13 06:05:00,53.2,46.5,29.83,WNW,296,0.0,4.0,78,0.00,,,0.00,Wunderground v.1.15,2013-09-13 12:05:00,
2013-09-13 06:10:00,52.8,45.8,29.83,WNW,296,0.0,4.0,77,0.00,,,0.00,Wunderground v.1.15,2013-09-13 12:10:00,
2013-09-13 06:15:00,52.6,45.9,29.83,WNW,296,0.0,4.0,78,0.00,,,0.00,Wunderground v.1.15,2013-09-13 12:15:00,
2013-09-13 06:20:00,53.1,46.1,29.83,WNW,296,0.0,4.0,77,0.00,,,0.00,Wunderground v.1.15,2013-09-13 12:20:00,
2013-09-13 06:25:00,52.8,46.1,29.83,WNW,296,0.0,4.0,78,0.00,,,0.00,Wunderground v.1.15,2013-09-13 12:25:00,
2013-09-13 06:30:00,51.9,44.9,29.83,WNW,296,0.0,4.0,77,0.00,,,0.00,Wunderground v.1.15,2013-09-13 12:30:00,
2013-09-13 06:35:00,51.0,45.0,29.83,WNW,296,0.0,4.0,80,0.00,,,0.00,Wunderground v.1.15,2013-09-13 12:35:00,
2013-09-13 06:40:00,51.8,45.8,29.83,WNW,296,0.0,4.0,80,0.00,,,0.00,Wunderground v.1.15,2013-09-13 12:40:00,
2013-09-13 06:45:00,51.8,45.8,29.83,WNW,296,0.0,4.0,80,0.00,,,0.00,Wunderground v.1.15,2013-09-13 12:45:00,
2013-09-13 06:55:00,51.6,46.0,29.83,WNW,296,0.0,4.0,81,0.00,,,0.00,Wunderground v.1.15,2013-09-13 12:55:00,
2013-09-13 07:00:00,51.9,46.3,29.83,WNW,296,0.0,4.0,81,0.00,,,0.00,Wunderground v.1.15,2013-09-13 13:00:00,
2013-09-13 07:05:00,51.7,45.7,29.83,WNW,296,0.0,4.0,80,0.00,,,0.00,Wunderground v.1.15,2013-09-13 13:05:00,
2013-09-13 07:10:00,51.0,45.4,29.83,WNW,296,0.0,4.0,81,0.00,,,0.00,Wunderground v.1.15,2013-09-13 13:10:00,
2013-09-13 07:15:00,50.7,45.4,29.83,WNW,296,0.0,4.0,82,0.00,,,0.00,Wunderground v.1.15,2013-09-13 13:15:00,
2013-09-13 07:20:00,50.8,45.8,29.84,WNW,296,0.0,4.0,83,0.00,,,0.00,Wunderground v.1.15,2013-09-13 13:20:00,
2013-09-13 07:25:00,50.9,45.6,29.83,WNW,296,0.0,4.0,82,0.00,,,0.00,Wunderground v.1.15,2013-09-13 13:25:00,
2013-09-13 07:30:00,51.0,46.0,29.83,WNW,296,0.0,4.0,83,0.00,,,0.00,Wunderground v.1.15,2013-09-13 13:30:00,
2013-09-13 07:35:00,51.2,46.2,29.83,WNW,296,0.0,4.0,83,0.00,,,0.00,Wunderground v.1.15,2013-09-13 13:35:00,
2013-09-13 07:40:00,51.6,46.6,29.84,WNW,296,0.0,4.0,83,0.00,,,0.00,Wunderground v.1.15,2013-09-13 13:40:00,
2013-09-13 07:45:00,51.7,46.7,29.84,WNW,296,0.0,4.0,83,0.00,,,0.00,Wunderground v.1.15,2013-09-13 13:45:00,
2013-09-13 07:55:00,52.6,47.6,29.84,WNW,296,0.0,4.0,83,0.00,,,0.00,Wunderground v.1.15,2013-09-13 13:55:00,
2013-09-13 08:00:00,52.4,47.1,29.84,WNW,296,0.0,4.0,82,0.00,,,0.00,Wunderground v.1.15,2013-09-13 14:00:00,
2013-09-13 08:05:00,52.2,46.9,29.84,WNW,296,0.0,4.0,82,0.00,,,0.00,Wunderground v.1.15,2013-09-13 14:05:00,
2013-09-13 08:10:00,51.6,46.3,29.84,WNW,296,0.0,4.0,82,0.00,,,0.00,Wunderground v.1.15,2013-09-13 14:10:00,
2013-09-13 08:15:00,51.7,46.7,29.84,WNW,296,0.0,4.0,83,0.00,,,0.00,Wunderground v.1.15,2013-09-13 14:15:00,
2013-09-13 08:20:00,51.7,47.0,29.84,WNW,296,0.0,4.0,84,0.00,,,0.00,Wunderground v.1.15,2013-09-13 14:20:00,
2013-09-13 08:25:00,52.7,48.3,29.84,WNW,296,0.0,4.0,85,0.00,,,0.00,Wunderground v.1.15,2013-09-13 14:25:00,
2013-09-13 08:30:00,52.9,47.9,29.84,WNW,296,0.0,4.0,83,0.00,,,0.00,Wunderground v.1.15,2013-09-13 14:30:00,
2013-09-13 08:40:00,53.4,48.4,29.84,WNW,296,0.0,4.0,83,0.00,,,0.00,Wunderground v.1.15,2013-09-13 14:40:00,
2013-09-13 08:50:00,54.8,49.4,29.84,WNW,296,0.0,4.0,82,0.00,,,0.00,Wunderground v.1.15,2013-09-13 14:50:00,
2013-09-13 08:55:00,54.8,49.1,29.84,WNW,296,0.0,4.0,81,0.00,,,0.00,Wunderground v.1.15,2013-09-13 14:55:00,
2013-09-13 09:00:00,56.1,50.3,29.84,WNW,296,0.0,4.0,81,0.00,,,0.00,Wunderground v.1.15,2013-09-13 15:00:00,
2013-09-13 09:05:00,56.5,50.4,29.84,WNW,296,0.0,4.0,80,0.00,,,0.00,Wunderground v.1.15,2013-09-13 15:05:00,
2013-09-13 09:10:00,56.4,50.6,29.84,WNW,296,0.0,4.0,81,0.00,,,0.00,Wunderground v.1.15,2013-09-13 15:10:00,
2013-09-13 09:15:00,56.7,50.9,29.84,WNW,296,0.0,4.0,81,0.00,,,0.00,Wunderground v.1.15,2013-09-13 15:15:00,
2013-09-13 09:25:00,58.2,52.4,29.84,WNW,296,0.0,4.0,81,0.00,,,0.00,Wunderground v.1.15,2013-09-13 15:25:00,
2013-09-13 09:30:00,59.3,51.7,29.84,WNW,296,0.0,4.0,76,0.00,,,0.00,Wunderground v.1.15,2013-09-13 15:30:00,
2013-09-13 09:35:00,60.0,52.4,29.84,WNW,296,0.0,4.0,76,0.00,,,0.00,Wunderground v.1.15,2013-09-13 15:35:00,
2013-09-13 09:40:00,60.2,52.6,29.84,WNW,296,0.0,4.0,76,0.00,,,0.00,Wunderground v.1.15,2013-09-13 15:40:00,
2013-09-13 09:50:00,61.4,51.1,29.84,WNW,296,0.0,4.0,69,0.00,,,0.00,Wunderground v.1.15,2013-09-13 15:50:00,
2013-09-13 09:55:00,61.2,50.6,29.84,WNW,296,0.0,4.0,68,0.00,,,0.00,Wunderground v.1.15,2013-09-13 15:55:00,
2013-09-13 10:05:00,61.0,50.4,29.84,WNW,296,0.0,4.0,68,0.00,,,0.00,Wunderground v.1.15,2013-09-13 16:05:00,
2013-09-13 10:10:00,60.9,49.5,29.84,NNW,334,1.0,4.0,66,0.00,,,0.00,Wunderground v.1.15,2013-09-13 16:10:00,
2013-09-13 10:15:00,60.9,49.1,29.84,NNW,344,1.0,4.0,65,0.00,,,0.00,Wunderground v.1.15,2013-09-13 16:15:00,
2013-09-13 10:20:00,60.6,49.2,29.84,NNW,344,1.0,4.0,66,0.00,,,0.00,Wunderground v.1.15,2013-09-13 16:20:00,
2013-09-13 10:25:00,60.8,49.4,29.84,NNW,348,1.0,4.0,66,0.00,,,0.00,Wunderground v.1.15,2013-09-13 16:25:00,
2013-09-13 10:35:00,61.4,49.9,29.84,NNW,348,1.0,4.0,66,0.00,,,0.00,Wunderground v.1.15,2013-09-13 16:35:00,
2013-09-13 10:40:00,61.5,50.0,29.84,NNW,348,0.0,4.0,66,0.00,,,0.00,Wunderground v.1.15,2013-09-13 16:40:00,
2013-09-13 10:45:00,61.6,50.1,29.84,NNW,348,0.0,4.0,66,0.00,,,0.00,Wunderground v.1.15,2013-09-13 16:45:00,
2013-09-13 10:50:00,62.0,49.7,29.84,NNW,348,0.0,4.0,64,0.00,,,0.00,Wunderground v.1.15,2013-09-13 16:50:00,
2013-09-13 10:55:00,62.1,49.8,29.84,NNW,348,0.0,4.0,64,0.00,,,0.00,Wunderground v.1.15,2013-09-13 16:55:00,
2013-09-13 11:00:00,62.3,50.4,29.83,NNW,348,0.0,4.0,65,0.00,,,0.00,Wunderground v.1.15,2013-09-13 17:00:00,
2013-09-13 11:05:00,63.0,50.2,29.83,NNW,348,0.0,4.0,63,0.00,,,0.00,Wunderground v.1.15,2013-09-13 17:05:00,
2013-09-13 11:10:00,64.1,50.4,29.83,NW,315,0.0,4.0,61,0.00,,,0.00,Wunderground v.1.15,2013-09-13 17:10:00,
2013-09-13 11:15:00,65.4,51.6,29.83,NW,315,0.0,4.0,61,0.00,,,0.00,Wunderground v.1.15,2013-09-13 17:15:00,
2013-09-13 11:20:00,66.2,50.5,29.83,NW,313,0.0,4.0,57,0.00,,,0.00,Wunderground v.1.15,2013-09-13 17:20:00,
2013-09-13 11:30:00,67.2,51.9,29.82,NW,313,0.0,4.0,58,0.00,,,0.00,Wunderground v.1.15,2013-09-13 17:30:00,
2013-09-13 11:35:00,68.1,51.3,29.82,NW,313,0.0,4.0,55,0.00,,,0.00,Wunderground v.1.15,2013-09-13 17:35:00,
2013-09-13 11:40:00,68.6,50.8,29.82,NNW,333,0.0,4.0,53,0.00,,,0.00,Wunderground v.1.15,2013-09-13 17:40:00,
2013-09-13 11:45:00,69.4,51.5,29.82,NNW,333,1.0,4.0,53,0.00,,,0.00,Wunderground v.1.15,2013-09-13 17:45:00,
2013-09-13 11:50:00,70.1,51.7,29.82,NNW,333,0.0,4.0,52,0.00,,,0.00,Wunderground v.1.15,2013-09-13 17:50:00,
2013-09-13 11:55:00,70.4,52.4,29.81,NNW,333,1.0,4.0,53,0.00,,,0.00,Wunderground v.1.15,2013-09-13 17:55:00,
2013-09-13 12:00:00,71.0,52.5,29.81,NNW,333,1.0,1.0,52,0.00,,,0.00,Wunderground v.1.15,2013-09-13 18:00:00,
2013-09-13 12:05:00,71.2,52.7,29.81,NNW,333,1.0,4.0,52,0.00,,,0.00,Wunderground v.1.15,2013-09-13 18:05:00,
2013-09-13 12:10:00,71.7,52.6,29.81,NNE,14,1.0,4.0,51,0.00,,,0.00,Wunderground v.1.15,2013-09-13 18:10:00,
2013-09-13 12:20:00,71.9,52.8,29.80,NW,305,0.0,4.0,51,0.00,,,0.00,Wunderground v.1.15,2013-09-13 18:20:00,
2013-09-13 12:25:00,72.7,52.4,29.80,NNW,341,1.0,4.0,49,0.00,,,0.00,Wunderground v.1.15,2013-09-13 18:25:00,
2013-09-13 12:30:00,72.6,52.3,29.80,NNW,348,1.0,4.0,49,0.00,,,0.00,Wunderground v.1.15,2013-09-13 18:30:00,
2013-09-13 12:40:00,73.5,53.7,29.80,NNE,24,0.0,4.0,50,0.00,,,0.00,Wunderground v.1.15,2013-09-13 18:40:00,
2013-09-13 12:45:00,73.9,53.5,29.80,NNE,24,0.0,4.0,49,0.00,,,0.00,Wunderground v.1.15,2013-09-13 18:45:00,
2013-09-13 12:55:00,74.6,53.6,29.79,NE,39,1.0,4.0,48,0.00,,,0.00,Wunderground v.1.15,2013-09-13 18:55:00,
2013-09-13 13:00:00,74.4,53.4,29.79,SW,223,1.0,4.0,48,0.00,,,0.00,Wunderground v.1.15,2013-09-13 19:00:00,
2013-09-13 13:05:00,75.2,54.7,29.79,ESE,108,1.0,4.0,49,0.00,,,0.00,Wunderground v.1.15,2013-09-13 19:05:00,
2013-09-13 13:10:00,75.3,54.3,29.78,East,90,1.0,4.0,48,0.00,,,0.00,Wunderground v.1.15,2013-09-13 19:10:00,
2013-09-13 13:15:00,75.3,53.7,29.78,East,83,0.0,4.0,47,0.00,,,0.00,Wunderground v.1.15,2013-09-13 19:15:00,
2013-09-13 13:20:00,75.9,54.2,29.78,East,100,0.0,4.0,47,0.00,,,0.00,Wunderground v.1.15,2013-09-13 19:20:00,
2013-09-13 13:25:00,76.0,52.5,29.78,East,89,0.0,4.0,44,0.00,,,0.00,Wunderground v.1.15,2013-09-13 19:25:00,
2013-09-13 13:30:00,77.1,54.7,29.78,NE,41,0.0,4.0,46,0.00,,,0.00,Wunderground v.1.15,2013-09-13 19:30:00,
2013-09-13 13:35:00,77.4,54.4,29.78,SSE,161,1.0,4.0,45,0.00,,,0.00,Wunderground v.1.15,2013-09-13 19:35:00,
2013-09-13 13:40:00,77.9,54.2,29.78,SSE,162,1.0,4.0,44,0.00,,,0.00,Wunderground v.1.15,2013-09-13 19:40:00,
2013-09-13 13:50:00,77.9,53.0,29.77,ESE,106,1.0,1.0,42,0.00,,,0.00,Wunderground v.1.15,2013-09-13 19:50:00,
2013-09-13 13:55:00,78.0,53.7,29.77,East,91,1.0,2.0,43,0.00,,,0.00,Wunderground v.1.15,2013-09-13 19:55:00,
2013-09-13 14:05:00,78.7,53.0,29.77,NNE,22,1.0,4.0,41,0.00,,,0.00,Wunderground v.1.15,2013-09-13 20:05:00,
2013-09-13 14:10:00,78.5,53.5,29.77,ENE,58,1.0,4.0,42,0.00,,,0.00,Wunderground v.1.15,2013-09-13 20:10:00,
2013-09-13 14:15:00,78.2,52.6,29.77,ENE,58,1.0,4.0,41,0.00,,,0.00,Wunderground v.1.15,2013-09-13 20:15:00,
2013-09-13 14:20:00,77.9,53.6,29.77,East,101,1.0,1.0,43,0.00,,,0.00,Wunderground v.1.15,2013-09-13 20:20:00,
2013-09-13 14:25:00,77.2,53.0,29.77,East,101,1.0,2.0,43,0.00,,,0.00,Wunderground v.1.15,2013-09-13 20:25:00,
2013-09-13 14:30:00,76.7,53.1,29.77,East,88,1.0,4.0,44,0.00,,,0.00,Wunderground v.1.15,2013-09-13 20:30:00,
2013-09-13 14:40:00,76.2,52.7,29.77,NE,50,1.0,1.0,44,0.00,,,0.00,Wunderground v.1.15,2013-09-13 20:40:00,
2013-09-13 14:45:00,77.2,53.0,29.77,ESE,113,1.0,4.0,43,0.00,,,0.00,Wunderground v.1.15,2013-09-13 20:45:00,
2013-09-13 14:50:00,76.7,53.1,29.77,NE,48,1.0,4.0,44,0.00,,,0.00,Wunderground v.1.15,2013-09-13 20:50:00,
2013-09-13 14:55:00,75.8,52.9,29.77,NE,49,0.0,4.0,45,0.00,,,0.00,Wunderground v.1.15,2013-09-13 20:55:00,
2013-09-13 15:00:00,75.8,52.9,29.77,NE,49,0.0,4.0,45,0.00,,,0.00,Wunderground v.1.15,2013-09-13 21:00:00,
2013-09-13 15:10:00,76.7,52.5,29.76,SSW,211,0.0,4.0,43,0.00,,,0.00,Wunderground v.1.15,2013-09-13 21:10:00,
2013-09-13 15:15:00,77.7,53.4,29.76,SSW,199,0.0,4.0,43,0.00,,,0.00,Wunderground v.1.15,2013-09-13 21:15:00,
2013-09-13 15:20:00,78.5,52.8,29.76,SSW,198,0.0,4.0,41,0.00,,,0.00,Wunderground v.1.15,2013-09-13 21:20:00,
2013-09-13 15:25:00,78.6,53.6,29.76,SSW,198,0.0,4.0,42,0.00,,,0.00,Wunderground v.1.15,2013-09-13 21:25:00,
2013-09-13 15:30:00,79.7,53.2,29.76,SSW,198,0.0,4.0,40,0.00,,,0.00,Wunderground v.1.15,2013-09-13 21:30:00,
2013-09-13 15:35:00,79.9,52.0,29.76,East,81,0.0,4.0,38,0.00,,,0.00,Wunderground v.1.15,2013-09-13 21:35:00,
2013-09-13 15:40:00,79.8,52.6,29.75,SW,225,1.0,4.0,39,0.00,,,0.00,Wunderground v.1.15,2013-09-13 21:40:00,
2013-09-13 15:50:00,79.9,52.7,29.75,South,184,1.0,4.0,39,0.00,,,0.00,Wunderground v.1.15,2013-09-13 21:50:00,
2013-09-13 15:55:00,80.3,53.8,29.75,SW,219,1.0,4.0,40,0.00,,,0.00,Wunderground v.1.15,2013-09-13 21:55:00,
2013-09-13 16:00:00,81.5,53.4,29.75,SSE,159,0.0,4.0,38,0.00,,,0.00,Wunderground v.1.15,2013-09-13 22:00:00,
2013-09-13 16:05:00,81.0,52.3,29.75,South,190,0.0,4.0,37,0.00,,,0.00,Wunderground v.1.15,2013-09-13 22:05:00,
2013-09-13 16:10:00,80.3,52.4,29.74,NNW,342,1.0,4.0,38,0.00,,,0.00,Wunderground v.1.15,2013-09-13 22:10:00,
2013-09-13 16:20:00,80.9,53.6,29.74,SSW,197,1.0,4.0,39,0.00,,,0.00,Wunderground v.1.15,2013-09-13 22:20:00,
2013-09-13 16:25:00,80.6,52.6,29.74,SW,214,1.0,4.0,38,0.00,,,0.00,Wunderground v.1.15,2013-09-13 22:25:00,
2013-09-13 16:30:00,80.8,53.5,29.74,SW,214,1.0,4.0,39,0.00,,,0.00,Wunderground v.1.15,2013-09-13 22:30:00,
2013-09-13 16:35:00,80.9,53.6,29.74,SW,214,0.0,4.0,39,0.00,,,0.00,Wunderground v.1.15,2013-09-13 22:35:00,
2013-09-13 16:40:00,80.0,53.5,29.73,SW,214,0.0,4.0,40,0.00,,,0.00,Wunderground v.1.15,2013-09-13 22:40:00,
2013-09-13 16:45:00,79.5,53.7,29.74,SW,214,0.0,4.0,41,0.00,,,0.00,Wunderground v.1.15,2013-09-13 22:45:00,
2013-09-13 16:55:00,80.1,52.9,29.73,NNW,342,0.0,4.0,39,0.00,,,0.00,Wunderground v.1.15,2013-09-13 22:55:00,
2013-09-13 17:00:00,80.2,53.0,29.73,SW,219,1.0,4.0,39,0.00,,,0.00,Wunderground v.1.15,2013-09-13 23:00:00,
2013-09-13 17:05:00,80.0,53.5,29.73,SW,219,1.0,4.0,40,0.00,,,0.00,Wunderground v.1.15,2013-09-13 23:05:00,
2013-09-13 17:10:00,79.4,55.0,29.73,SW,219,0.0,4.0,43,0.00,,,0.00,Wunderground v.1.15,2013-09-13 23:10:00,
2013-09-13 17:15:00,78.9,53.9,29.73,SW,219,0.0,4.0,42,0.00,,,0.00,Wunderground v.1.15,2013-09-13 23:15:00,
2013-09-13 17:20:00,79.1,53.4,29.73,SW,219,0.0,4.0,41,0.00,,,0.00,Wunderground v.1.15,2013-09-13 23:20:00,
2013-09-13 17:25:00,79.2,54.1,29.73,SW,234,0.0,4.0,42,0.00,,,0.00,Wunderground v.1.15,2013-09-13 23:25:00,
2013-09-13 17:35:00,79.5,55.0,29.73,SW,234,0.0,4.0,43,0.00,,,0.00,Wunderground v.1.15,2013-09-13 23:35:00,
2013-09-13 17:40:00,79.7,56.5,29.73,SW,234,0.0,4.0,45,0.00,,,0.00,Wunderground v.1.15,2013-09-13 23:40:00,
2013-09-13 17:45:00,80.2,53.7,29.73,SW,234,0.0,4.0,40,0.00,,,0.00,Wunderground v.1.15,2013-09-13 23:45:00,
2013-09-13 17:55:00,79.2,56.0,29.73,SW,234,0.0,4.0,45,0.00,,,0.00,Wunderground v.1.15,2013-09-13 23:55:00,
2013-09-13 18:00:00,79.1,57.1,29.73,SW,234,0.0,4.0,47,0.00,,,0.00,Wunderground v.1.15,2013-09-14 00:00:00,
2013-09-13 18:05:00,79.0,55.8,29.73,SW,234,0.0,4.0,45,0.00,,,0.00,Wunderground v.1.15,2013-09-14 00:05:00,
2013-09-13 18:15:00,79.0,53.9,29.72,SW,234,0.0,4.0,42,0.00,,,0.00,Wunderground v.1.15,2013-09-14 00:15:00,
2013-09-13 18:20:00,79.0,53.9,29.72,SW,234,0.0,4.0,42,0.00,,,0.00,Wunderground v.1.15,2013-09-14 00:20:00,
2013-09-13 18:25:00,78.6,54.2,29.72,SW,234,0.0,4.0,43,0.00,,,0.00,Wunderground v.1.15,2013-09-14 00:25:00,
2013-09-13 18:30:00,78.5,54.1,29.73,SW,234,0.0,4.0,43,0.00,,,0.00,Wunderground v.1.15,2013-09-14 00:30:00,
2013-09-13 18:35:00,78.0,54.9,29.73,SW,234,0.0,4.0,45,0.00,,,0.00,Wunderground v.1.15,2013-09-14 00:35:00,
2013-09-13 18:40:00,77.7,54.7,29.73,SW,234,0.0,4.0,45,0.00,,,0.00,Wunderground v.1.15,2013-09-14 00:40:00,
2013-09-13 18:50:00,77.8,54.1,29.73,SW,234,0.0,4.0,44,0.00,,,0.00,Wunderground v.1.15,2013-09-14 00:50:00,
2013-09-13 18:55:00,77.6,54.6,29.73,SW,234,0.0,4.0,45,0.00,,,0.00,Wunderground v.1.15,2013-09-14 00:55:00,
2013-09-13 19:00:00,77.4,55.0,29.73,SW,234,0.0,4.0,46,0.00,,,0.00,Wunderground v.1.15,2013-09-14 01:00:00,
2013-09-13 19:05:00,77.1,56.5,29.73,SW,234,0.0,4.0,49,0.00,,,0.00,Wunderground v.1.15,2013-09-14 01:05:00,
2013-09-13 19:10:00,76.8,56.8,29.73,SW,234,0.0,4.0,50,0.00,,,0.00,Wunderground v.1.15,2013-09-14 01:10:00,
2013-09-13 19:15:00,76.5,56.5,29.73,SW,234,0.0,4.0,50,0.00,,,0.00,Wunderground v.1.15,2013-09-14 01:15:00,
2013-09-13 19:20:00,76.2,57.8,29.73,SW,234,0.0,4.0,53,0.00,,,0.00,Wunderground v.1.15,2013-09-14 01:20:00,
2013-09-13 19:30:00,75.4,57.6,29.73,SW,234,0.0,4.0,54,0.00,,,0.00,Wunderground v.1.15,2013-09-14 01:30:00,
2013-09-13 19:35:00,74.9,58.6,29.73,SW,234,0.0,4.0,57,0.00,,,0.00,Wunderground v.1.15,2013-09-14 01:35:00,
2013-09-13 19:40:00,74.4,58.7,29.72,SW,234,0.0,4.0,58,0.00,,,0.00,Wunderground v.1.15,2013-09-14 01:40:00,
2013-09-13 19:45:00,74.0,58.8,29.72,SW,234,0.0,4.0,59,0.00,,,0.00,Wunderground v.1.15,2013-09-14 01:45:00,
2013-09-13 19:50:00,73.6,58.9,29.73,SW,234,0.0,4.0,60,0.00,,,0.00,Wunderground v.1.15,2013-09-14 01:50:00,
2013-09-13 19:55:00,72.9,59.1,29.73,SW,234,0.0,4.0,62,0.00,,,0.00,Wunderground v.1.15,2013-09-14 01:55:00,
2013-09-13 20:00:00,72.4,58.2,29.73,SW,234,0.0,4.0,61,0.00,,,0.00,Wunderground v.1.15,2013-09-14 02:00:00,
2013-09-13 20:10:00,71.7,58.4,29.73,SW,234,0.0,4.0,63,0.00,,,0.00,Wunderground v.1.15,2013-09-14 02:10:00,
2013-09-13 20:15:00,71.1,58.3,29.73,SW,234,0.0,4.0,64,0.00,,,0.00,Wunderground v.1.15,2013-09-14 02:15:00,
2013-09-13 20:20:00,70.6,58.3,29.73,SW,234,0.0,4.0,65,0.00,,,0.00,Wunderground v.1.15,2013-09-14 02:20:00,
2013-09-13 20:25:00,69.9,58.0,29.74,SW,234,0.0,4.0,66,0.00,,,0.00,Wunderground v.1.15,2013-09-14 02:25:00,
2013-09-13 20:35:00,69.4,58.0,29.74,SW,234,0.0,4.0,67,0.00,,,0.00,Wunderground v.1.15,2013-09-14 02:35:00,
2013-09-13 20:40:00,69.4,58.0,29.74,SW,234,0.0,4.0,67,0.00,,,0.00,Wunderground v.1.15,2013-09-14 02:40:00,
2013-09-13 20:45:00,69.2,57.8,29.74,SW,234,0.0,4.0,67,0.00,,,0.00,Wunderground v.1.15,2013-09-14 02:45:00,
2013-09-13 20:50:00,68.7,57.7,29.74,SW,234,0.0,4.0,68,0.00,,,0.00,Wunderground v.1.15,2013-09-14 02:50:00,
2013-09-13 20:55:00,68.3,57.7,29.75,SW,234,0.0,4.0,69,0.00,,,0.00,Wunderground v.1.15,2013-09-14 02:55:00,
2013-09-13 21:00:00,68.2,57.6,29.75,SW,234,0.0,4.0,69,0.00,,,0.00,Wunderground v.1.15,2013-09-14 03:00:00,
2013-09-13 21:05:00,68.1,57.5,29.75,SW,234,0.0,4.0,69,0.00,,,0.00,Wunderground v.1.15,2013-09-14 03:05:00,
2013-09-13 21:10:00,67.8,57.7,29.76,SW,234,0.0,4.0,70,0.00,,,0.00,Wunderground v.1.15,2013-09-14 03:10:00,
2013-09-13 21:15:00,67.5,57.8,29.76,SW,234,0.0,4.0,71,0.00,,,0.00,Wunderground v.1.15,2013-09-14 03:15:00,
2013-09-13 21:25:00,66.7,57.8,29.76,SW,234,0.0,4.0,73,0.00,,,0.00,Wunderground v.1.15,2013-09-14 03:25:00,
2013-09-13 21:30:00,66.2,58.4,29.76,SW,234,0.0,4.0,76,0.00,,,0.00,Wunderground v.1.15,2013-09-14 03:30:00,
2013-09-13 21:35:00,66.2,57.3,29.76,WSW,254,0.0,4.0,73,0.00,,,0.00,Wunderground v.1.15,2013-09-14 03:35:00,
2013-09-13 21:40:00,66.1,57.2,29.76,WSW,254,0.0,4.0,73,0.00,,,0.00,Wunderground v.1.15,2013-09-14 03:40:00,
2013-09-13 21:50:00,65.9,56.6,29.76,WSW,254,0.0,4.0,72,0.00,,,0.00,Wunderground v.1.15,2013-09-14 03:50:00,
2013-09-13 21:55:00,65.3,56.4,29.76,WSW,254,0.0,4.0,73,0.00,,,0.00,Wunderground v.1.15,2013-09-14 03:55:00,
2013-09-13 22:00:00,65.1,56.2,29.76,WSW,254,0.0,4.0,73,0.00,,,0.00,Wunderground v.1.15,2013-09-14 04:00:00,
2013-09-13 22:05:00,65.2,55.6,29.76,WSW,254,0.0,4.0,71,0.00,,,0.00,Wunderground v.1.15,2013-09-14 04:05:00,
2013-09-13 22:10:00,65.4,55.0,29.76,WSW,254,0.0,4.0,69,0.00,,,0.00,Wunderground v.1.15,2013-09-14 04:10:00,
2013-09-13 22:15:00,65.6,54.8,29.77,WSW,254,0.0,4.0,68,0.00,,,0.00,Wunderground v.1.15,2013-09-14 04:15:00,
2013-09-13 22:20:00,65.7,54.4,29.77,WSW,254,0.0,4.0,67,0.00,,,0.00,Wunderground v.1.15,2013-09-14 04:20:00,
2013-09-13 22:25:00,65.3,54.5,29.77,WSW,254,0.0,4.0,68,0.00,,,0.00,Wunderground v.1.15,2013-09-14 04:25:00,
2013-09-13 22:35:00,64.2,53.8,29.77,WSW,254,0.0,4.0,69,0.00,,,0.00,Wunderground v.1.15,2013-09-14 04:35:00,
2013-09-13 22:40:00,65.0,53.8,29.77,WSW,254,0.0,4.0,67,0.00,,,0.00,Wunderground v.1.15,2013-09-14 04:40:00,
2013-09-13 22:45:00,64.9,54.1,29.77,WSW,254,1.0,4.0,68,0.00,,,0.00,Wunderground v.1.15,2013-09-14 04:45:00,
2013-09-13 22:50:00,64.5,54.5,29.77,WSW,254,1.0,4.0,70,0.00,,,0.00,Wunderground v.1.15,2013-09-14 04:50:00,
2013-09-13 22:55:00,63.9,54.3,29.77,WSW,254,1.0,4.0,71,0.00,,,0.00,Wunderground v.1.15,2013-09-14 04:55:00,
2013-09-13 23:00:00,63.6,54.0,29.77,WSW,254,1.0,1.0,71,0.00,,,0.00,Wunderground v.1.15,2013-09-14 05:00:00,
2013-09-13 23:05:00,63.7,53.7,29.77,WSW,254,1.0,4.0,70,0.00,,,0.00,Wunderground v.1.15,2013-09-14 05:05:00,
2013-09-13 23:10:00,63.9,53.5,29.78,West,267,1.0,4.0,69,0.00,,,0.00,Wunderground v.1.15,2013-09-14 05:10:00,
2013-09-13 23:15:00,64.3,53.1,29.78,West,267,1.0,4.0,67,0.00,,,0.00,Wunderground v.1.15,2013-09-14 05:15:00,
2013-09-13 23:20:00,64.7,53.1,29.78,West,267,1.0,4.0,66,0.00,,,0.00,Wunderground v.1.15,2013-09-14 05:20:00,
2013-09-13 23:25:00,65.0,52.9,29.78,West,267,1.0,4.0,65,0.00,,,0.00,Wunderground v.1.15,2013-09-14 05:25:00,
2013-09-13 23:35:00,64.9,53.3,29.78,West,269,1.0,4.0,66,0.00,,,0.00,Wunderground v.1.15,2013-09-14 05:35:00,
2013-09-13 23:40:00,64.0,54.0,29.79,West,269,0.0,4.0,70,0.00,,,0.00,Wunderground v.1.15,2013-09-14 05:40:00,
2013-09-13 23:45:00,62.1,53.3,29.79,West,269,0.0,4.0,73,0.00,,,0.00,Wunderground v.1.15,2013-09-14 05:45:00,
2013-09-13 23:50:00,61.9,52.8,29.79,West,269,0.0,4.0,72,0.00,,,0.00,Wunderground v.1.15,2013-09-14 05:50:00,
2013-09-13 23:55:00,62.2,52.7,29.79,West,269,0.0,4.0,71,0.00,,,0.00,Wunderground v.1.15,2013-09-14 05:55:00,